Time;durP1;ratioP1;P1;durP2;ratioP2;P2;SDS_P1;SDS_P2;PMS_P1;PMS_P2;Temp;Humidity;BMP_temperature;BMP_pressure;BME280_temperature;BME280_humidity;BME280_pressure;Samples;Min_cycle;Max_cycle;Signal;HPM_P1;HPM_P2
2023/06/12 00:00:39;;;;;;;4.20;3.17;;;;;;;11.84;50.58;150265.91;5061972;28;20044;-71
2023/06/12 00:03:05;;;;;;;6.80;3.22;;;;;;;11.85;50.44;150268.47;5062364;28;20063;-70
2023/06/12 00:05:30;;;;;;;4.82;2.63;;;;;;;11.65;51.51;150219.69;5061929;28;20024;-71
2023/06/12 00:07:57;;;;;;;5.18;3.10;;;;;;;11.60;51.56;150205.56;5062266;28;20195;-71
2023/06/12 00:10:23;;;;;;;5.28;3.20;;;;;;;11.53;51.85;150190.19;5062483;28;20076;-70
2023/06/12 00:12:49;;;;;;;6.43;2.65;;;;;;;11.44;51.73;150167.06;5046751;28;20136;-72
2023/06/12 00:15:14;;;;;;;4.55;2.70;;;;;;;11.35;51.81;150143.97;5065958;28;20033;-71
2023/06/12 00:17:40;;;;;;;4.07;2.88;;;;;;;11.50;51.78;150181.16;5065320;28;20270;-71
2023/06/12 00:20:07;;;;;;;3.88;2.90;;;;;;;11.46;51.81;150172.22;5061298;28;20029;-70
2023/06/12 00:22:36;;;;;;;4.35;2.70;;;;;;;11.50;52.04;150181.16;5063426;28;20045;-70
2023/06/12 00:25:02;;;;;;;4.22;2.42;;;;;;;11.38;52.05;150152.94;5064443;28;20040;-70
2023/06/12 00:27:27;;;;;;;4.43;2.90;;;;;;;11.44;51.98;150167.06;5065424;28;20033;-70
2023/06/12 00:29:53;;;;;;;4.95;2.70;;;;;;;11.12;51.82;150086.25;5065531;28;20036;-71
2023/06/12 00:32:18;;;;;;;5.40;2.60;;;;;;;11.49;51.92;150178.63;5065147;28;20029;-70
2023/06/12 00:34:44;;;;;;;6.60;2.90;;;;;;;11.14;52.90;150092.63;5065396;28;20045;-70
2023/06/12 00:37:12;;;;;;;6.43;2.55;;;;;;;11.18;52.89;150102.91;5064474;28;20028;-70
2023/06/12 00:39:38;;;;;;;10.20;2.70;;;;;;;11.39;52.01;150154.25;5065548;28;20029;-70
2023/06/12 00:42:04;;;;;;;5.60;2.60;;;;;;;11.41;52.62;150159.38;5064970;28;20272;-69
2023/06/12 00:44:30;;;;;;;6.10;2.70;;;;;;;11.45;52.39;150169.63;5065360;28;20032;-70
2023/06/12 00:46:55;;;;;;;4.07;2.60;;;;;;;11.47;52.36;150174.78;5061643;28;20218;-70
2023/06/12 00:49:21;;;;;;;7.05;2.65;;;;;;;11.42;52.75;150161.94;5065537;28;20057;-70
2023/06/12 00:51:47;;;;;;;7.63;2.90;;;;;;;11.52;53.46;150186.34;5053349;28;20033;-71
2023/06/12 00:54:13;;;;;;;7.05;2.90;;;;;;;11.37;52.57;150149.09;5065367;28;20143;-69
2023/06/12 00:56:39;;;;;;;6.45;2.65;;;;;;;11.31;53.02;150134.97;5064792;28;20329;-69
2023/06/12 00:59:05;;;;;;;4.15;2.58;;;;;;;11.45;52.66;150169.63;5065105;28;20033;-68
2023/06/12 01:01:32;;;;;;;3.53;2.30;;;;;;;11.37;52.91;150150.41;5061544;28;20025;-68
2023/06/12 01:03:57;;;;;;;3.33;2.45;;;;;;;11.22;53.24;150111.91;5064999;28;20033;-68
2023/06/12 01:06:37;;;;;;;4.00;2.50;;;;;;;11.03;53.94;150065.72;5056265;28;20346;-69
2023/06/12 01:09:32;;;;;;;3.55;2.47;;;;;;;11.27;54.16;150124.69;5063526;28;20339;-68
2023/06/12 01:12:00;;;;;;;4.82;2.35;;;;;;;11.21;53.48;150110.59;5064443;28;20348;-67
2023/06/12 01:14:26;;;;;;;3.50;2.45;;;;;;;11.13;53.49;150090.09;5062049;28;20321;-67
2023/06/12 01:16:52;;;;;;;3.17;2.50;;;;;;;11.18;53.34;150102.91;5061215;28;20047;-69
2023/06/12 01:19:19;;;;;;;4.88;2.80;;;;;;;11.25;53.16;150119.59;5064867;28;20032;-69
2023/06/12 01:21:52;;;;;;;4.10;2.72;;;;;;;11.09;53.14;150078.50;5059176;28;20029;-69
2023/06/12 01:24:56;;;;;;;5.75;3.67;;;;;;;11.18;53.77;150101.63;5044347;28;20088;-68
2023/06/12 01:27:36;;;;;;;6.22;3.35;;;;;;;11.02;53.46;150063.13;5049462;28;20040;-70
2023/06/12 01:30:15;;;;;;;3.70;2.92;;;;;;;10.95;53.77;150045.19;5062536;28;20060;-70
2023/06/12 01:32:41;;;;;;;7.05;3.33;;;;;;;10.97;53.82;150050.28;5064053;28;20030;-70
2023/06/12 01:35:13;;;;;;;5.90;2.70;;;;;;;10.99;54.46;150055.44;5064335;28;20033;-70
2023/06/12 01:37:49;;;;;;;4.15;2.92;;;;;;;11.13;53.87;150088.78;5063716;28;20017;-69
2023/06/12 01:40:17;;;;;;;4.72;3.00;;;;;;;10.94;54.42;150041.34;5064138;28;20056;-68
2023/06/12 01:42:43;;;;;;;3.33;2.58;;;;;;;11.01;54.14;150060.56;5063748;28;20214;-69
2023/06/12 01:45:10;;;;;;;4.82;3.00;;;;;;;10.88;54.21;150028.50;5064080;28;20029;-68
2023/06/12 01:47:36;;;;;;;3.85;2.72;;;;;;;11.00;54.28;150056.72;5059738;28;20035;-69
2023/06/12 01:50:03;;;;;;;2.90;2.25;;;;;;;10.95;54.33;150045.19;5063991;28;20100;-69
2023/06/12 01:52:29;;;;;;;3.28;2.40;;;;;;;11.10;54.07;150082.41;5063566;28;20035;-69
2023/06/12 01:54:59;;;;;;;4.75;2.78;;;;;;;11.24;54.04;150117.00;5063985;28;20282;-68
2023/06/12 01:57:25;;;;;;;6.68;3.25;;;;;;;11.18;53.96;150102.91;5063532;28;20036;-69
2023/06/12 01:59:53;;;;;;;7.03;3.03;;;;;;;11.11;54.39;150084.94;5063786;28;20104;-72
2023/06/12 02:02:19;;;;;;;4.95;3.35;;;;;;;11.01;55.11;150060.56;5063345;28;20325;-70
2023/06/12 02:04:45;;;;;;;7.68;2.90;;;;;;;10.79;54.94;150005.44;5064814;28;20025;-70
2023/06/12 02:07:11;;;;;;;5.68;4.25;;;;;;;11.01;54.84;150059.28;5073354;28;20071;-70
2023/06/12 02:09:36;;;;;;;6.97;2.88;;;;;;;10.84;55.65;150018.22;5071953;28;20068;-70
2023/06/12 02:12:02;;;;;;;2.95;2.30;;;;;;;10.81;55.41;150010.53;5062377;28;20110;-70
2023/06/12 02:14:28;;;;;;;4.78;2.58;;;;;;;11.07;55.17;150073.41;5063447;28;20100;-71
2023/06/12 02:16:54;;;;;;;3.75;2.30;;;;;;;10.77;55.10;149999.00;5054685;28;20068;-72
2023/06/12 02:19:22;;;;;;;7.22;2.42;;;;;;;10.96;54.72;150046.44;5047252;28;20093;-72
2023/06/12 02:21:49;;;;;;;3.90;2.95;;;;;;;11.22;53.48;150113.16;5051717;28;20056;-72
2023/06/12 02:24:15;;;;;;;3.17;2.72;;;;;;;11.38;53.93;150152.94;5062188;28;20313;-71
2023/06/12 02:26:41;;;;;;;5.70;3.10;;;;;;;11.34;53.86;150141.41;5062790;28;20032;-71
2023/06/12 02:29:12;;;;;;;5.90;2.78;;;;;;;11.33;54.08;150140.13;5063134;28;20047;-71
2023/06/12 02:31:38;;;;;;;6.53;2.65;;;;;;;11.42;53.61;150160.69;5062988;28;20348;-69
2023/06/12 02:34:04;;;;;;;5.18;2.60;;;;;;;11.40;54.10;150156.78;5063160;28;20060;-70
2023/06/12 02:36:30;;;;;;;11.48;2.65;;;;;;;11.38;53.42;150151.66;5048175;28;20037;-69
2023/06/12 02:38:56;;;;;;;4.60;2.47;;;;;;;11.30;54.30;150131.13;5059987;28;20198;-69
2023/06/12 02:41:22;;;;;;;5.05;2.80;;;;;;;11.38;54.26;150151.66;5062613;28;20040;-69
2023/06/12 02:43:48;;;;;;;6.75;2.55;;;;;;;11.45;54.54;150169.63;5063069;28;20048;-68
2023/06/12 02:46:14;;;;;;;5.30;2.38;;;;;;;11.36;54.62;150146.56;5058178;28;20037;-69
2023/06/12 02:48:39;;;;;;;5.43;2.58;;;;;;;11.48;54.04;150176.06;5062937;28;20021;-68
2023/06/12 02:51:05;;;;;;;6.68;2.50;;;;;;;11.51;54.13;150185.03;5062384;28;20025;-68
2023/06/12 02:53:31;;;;;;;3.38;2.08;;;;;;;11.62;53.99;150212.00;5062946;28;20021;-68
2023/06/12 02:55:57;;;;;;;5.03;2.38;;;;;;;11.81;53.59;150259.47;5063014;28;20209;-69
2023/06/12 02:58:22;;;;;;;5.85;3.03;;;;;;;11.62;53.69;150210.72;5062951;28;20025;-69
2023/06/12 03:00:48;;;;;;;6.05;2.88;;;;;;;11.70;53.70;150231.22;5062703;28;20040;-70
2023/06/12 03:03:14;;;;;;;3.30;2.53;;;;;;;11.66;54.43;150221.00;5062943;28;20372;-70
2023/06/12 03:05:41;;;;;;;4.40;2.60;;;;;;;11.61;54.83;150209.41;5062319;28;20036;-70
2023/06/12 03:08:08;;;;;;;3.05;2.50;;;;;;;11.67;54.54;150223.53;5062913;28;20041;-67
2023/06/12 03:10:35;;;;;;;6.18;2.55;;;;;;;11.72;54.24;150236.38;5062125;28;20033;-70
2023/06/12 03:13:01;;;;;;;6.15;2.45;;;;;;;11.83;53.80;150263.31;5061478;28;20037;-70
2023/06/12 03:15:27;;;;;;;5.38;2.90;;;;;;;11.97;53.68;150298.03;5062612;28;20171;-69
2023/06/12 03:17:52;;;;;;;7.00;2.88;;;;;;;12.24;52.97;150367.38;5062698;28;20063;-71
2023/06/12 03:20:18;;;;;;;3.63;2.45;;;;;;;12.37;52.77;150399.50;5062587;28;20301;-70
2023/06/12 03:22:44;;;;;;;3.45;2.15;;;;;;;12.76;52.14;150495.81;5062387;28;20056;-71
2023/06/12 03:25:18;;;;;;;4.28;2.75;;;;;;;12.83;51.17;150513.81;5061608;28;20217;-69
2023/06/12 03:27:48;;;;;;;5.50;2.75;;;;;;;12.78;51.73;150500.94;5062528;28;20056;-70
2023/06/12 03:30:13;;;;;;;4.22;2.80;;;;;;;12.81;52.68;150507.38;5062871;28;20102;-69
2023/06/12 03:32:39;;;;;;;6.25;2.90;;;;;;;12.74;51.81;150491.97;5062000;28;20032;-70
2023/06/12 03:35:05;;;;;;;2.95;2.53;;;;;;;12.94;51.79;150542.06;5062598;28;20071;-68
2023/06/12 03:37:30;;;;;;;2.75;2.45;;;;;;;12.92;52.44;150536.91;5048555;28;20017;-69
2023/06/12 03:39:56;;;;;;;4.93;2.63;;;;;;;12.95;52.25;150544.66;5062444;28;20053;-70
2023/06/12 03:42:22;;;;;;;6.20;2.60;;;;;;;12.76;51.46;150495.81;5062065;28;20025;-70
2023/06/12 03:44:48;;;;;;;4.95;2.40;;;;;;;12.99;51.03;150553.63;5062515;28;20036;-71
2023/06/12 03:47:14;;;;;;;6.00;2.70;;;;;;;12.97;52.75;150547.19;5065590;28;20037;-68
2023/06/12 03:49:40;;;;;;;4.95;2.38;;;;;;;13.26;51.60;150620.44;5066324;28;20037;-70
2023/06/12 03:52:06;;;;;;;4.43;2.40;;;;;;;13.64;51.67;150715.63;5065889;28;20087;-69
2023/06/12 03:54:32;;;;;;;3.60;2.20;;;;;;;13.70;52.03;150731.03;5066129;28;20336;-69
2023/06/12 03:56:57;;;;;;;3.97;2.38;;;;;;;13.76;50.81;150745.16;5065820;28;20040;-70
2023/06/12 03:59:23;;;;;;;3.63;2.30;;;;;;;13.64;49.42;150716.88;5065924;28;20037;-70
2023/06/12 04:01:49;;;;;;;4.53;2.15;;;;;;;13.83;49.30;150763.16;5065497;28;20047;-69
2023/06/12 04:04:15;;;;;;;3.60;2.15;;;;;;;13.66;48.70;150720.72;5066079;28;20344;-69
2023/06/12 04:06:41;;;;;;;4.15;2.10;;;;;;;13.81;49.44;150759.31;5053193;28;20167;-70
2023/06/12 04:09:08;;;;;;;1.95;1.80;;;;;;;13.86;49.76;150770.88;5062399;28;20383;-70
2023/06/12 04:11:38;;;;;;;2.58;1.85;;;;;;;13.89;48.19;150778.56;5065628;28;20222;-70
2023/06/12 04:14:05;;;;;;;2.63;1.77;;;;;;;14.00;48.58;150804.31;5065970;28;20057;-70
2023/06/12 04:16:33;;;;;;;4.00;2.17;;;;;;;13.98;47.90;150800.47;5055809;28;20111;-71
2023/06/12 04:19:03;;;;;;;3.45;2.30;;;;;;;14.11;48.67;150832.59;5045899;28;20056;-71
2023/06/12 04:21:32;;;;;;;3.33;1.88;;;;;;;14.03;47.71;150812.03;5054296;28;20029;-70
2023/06/12 04:24:02;;;;;;;2.40;2.08;;;;;;;14.29;48.29;150877.59;5062062;28;20240;-69
2023/06/12 04:26:28;;;;;;;3.33;1.98;;;;;;;14.34;48.60;150890.47;5056322;28;20025;-69
2023/06/12 04:28:55;;;;;;;3.45;1.80;;;;;;;14.21;46.65;150858.31;5052823;28;20047;-70
2023/06/12 04:31:21;;;;;;;3.20;1.85;;;;;;;14.25;46.59;150867.28;5059263;28;20168;-70
2023/06/12 04:33:48;;;;;;;3.25;1.95;;;;;;;14.19;46.58;150851.88;5065598;28;20039;-70
2023/06/12 04:36:17;;;;;;;2.92;2.08;;;;;;;13.99;47.11;150803.00;5057466;28;20100;-70
2023/06/12 04:38:43;;;;;;;3.03;1.70;;;;;;;14.54;46.50;150940.63;5059460;28;20091;-71
2023/06/12 04:41:10;;;;;;;2.25;1.80;;;;;;;14.59;46.26;150953.50;5065063;28;20033;-69
2023/06/12 04:43:36;;;;;;;3.40;1.90;;;;;;;14.75;46.17;150992.09;5065102;28;20096;-71
2023/06/12 04:46:02;;;;;;;3.28;1.42;;;;;;;14.67;44.74;150974.09;5064906;28;20294;-69
2023/06/12 04:48:28;;;;;;;10.07;1.85;;;;;;;14.75;44.76;150992.09;5045111;28;20041;-71
2023/06/12 04:50:54;;;;;;;4.28;1.60;;;;;;;14.75;43.75;150992.09;5060559;28;20102;-70
2023/06/12 04:53:29;;;;;;;2.17;1.48;;;;;;;14.64;44.15;150966.38;5066182;28;20367;-70
2023/06/12 04:55:56;;;;;;;2.55;1.60;;;;;;;14.74;43.54;150989.56;5060054;28;20109;-68
2023/06/12 04:58:22;;;;;;;3.03;1.65;;;;;;;14.72;43.38;150984.38;5047638;28;20025;-69
2023/06/12 05:00:48;;;;;;;1.98;1.77;;;;;;;14.92;44.00;151034.56;5064549;28;20302;-71
2023/06/12 05:03:17;;;;;;;2.78;1.52;;;;;;;14.97;43.50;151048.72;5064722;28;20040;-71
2023/06/12 05:05:44;;;;;;;2.55;1.55;;;;;;;15.09;44.44;151077.03;5061494;28;20225;-69
2023/06/12 05:08:11;;;;;;;2.30;1.33;;;;;;;15.02;43.21;151060.28;5054011;28;20024;-69
2023/06/12 05:10:36;;;;;;;1.73;1.50;;;;;;;15.19;43.45;151102.75;5064040;28;20307;-68
2023/06/12 05:13:02;;;;;;;1.65;1.50;;;;;;;15.28;43.19;151124.66;5064021;28;20025;-70
2023/06/12 05:15:28;;;;;;;3.65;1.50;;;;;;;15.10;43.28;151080.88;5064309;28;20100;-70
2023/06/12 05:17:54;;;;;;;7.38;1.90;;;;;;;15.39;43.58;151153.00;5064707;28;20058;-70
2023/06/12 05:20:20;;;;;;;2.50;1.48;;;;;;;15.33;42.16;151137.50;5064383;28;20283;-69
2023/06/12 05:22:46;;;;;;;4.10;1.65;;;;;;;15.62;42.56;151210.91;5064078;28;20317;-69
2023/06/12 05:25:12;;;;;;;23.10;2.05;;;;;;;15.77;41.61;151246.94;5064555;28;20029;-70
2023/06/12 05:27:38;;;;;;;2.35;1.58;;;;;;;15.95;41.84;151293.34;5063988;28;20032;-69
2023/06/12 05:30:06;;;;;;;1.60;1.40;;;;;;;15.75;41.12;151241.75;5064059;28;20083;-69
2023/06/12 05:32:31;;;;;;;1.50;1.40;;;;;;;15.62;41.04;151210.91;5063603;28;20025;-69
2023/06/12 05:34:57;;;;;;;1.80;1.50;;;;;;;15.33;41.74;151138.84;5064198;28;20349;-69
2023/06/12 05:37:22;;;;;;;2.50;1.30;;;;;;;15.65;41.00;151218.59;5049630;28;20052;-70
2023/06/12 05:39:48;;;;;;;2.97;1.40;;;;;;;15.63;41.40;151212.16;5064298;28;20198;-70
2023/06/12 05:42:14;;;;;;;1.60;1.48;;;;;;;15.96;40.76;151295.91;5063836;28;20037;-69
2023/06/12 05:44:39;;;;;;;1.95;1.50;;;;;;;15.99;40.99;151302.31;5063889;28;20044;-70
2023/06/12 05:47:05;;;;;;;4.53;1.40;;;;;;;16.25;41.69;151366.69;5063426;28;20052;-70
2023/06/12 05:49:31;;;;;;;3.42;1.30;;;;;;;16.36;40.60;151395.03;5063743;28;20091;-71
2023/06/12 05:51:56;;;;;;;2.70;1.27;;;;;;;16.48;41.16;151425.97;5063440;28;20048;-70
2023/06/12 05:54:22;;;;;;;2.55;1.20;;;;;;;16.37;39.04;151397.63;5064029;28;20063;-69
2023/06/12 05:56:47;;;;;;;3.05;1.25;;;;;;;16.17;38.32;151347.41;5051756;28;20029;-68
2023/06/12 05:59:13;;;;;;;2.58;1.33;;;;;;;16.15;38.46;151342.28;5052938;28;20037;-69
2023/06/12 06:01:39;;;;;;;1.63;1.15;;;;;;;16.18;37.93;151350.00;5063550;28;20036;-68
2023/06/12 06:04:06;;;;;;;1.85;1.20;;;;;;;16.37;38.08;151398.94;5063862;28;20033;-68
2023/06/12 06:06:31;;;;;;;3.10;1.08;;;;;;;16.44;38.66;151414.38;5053621;28;20112;-70
2023/06/12 06:09:00;;;;;;;8.27;1.42;;;;;;;16.29;37.59;151377.00;5058121;28;20028;-69
2023/06/12 06:11:26;;;;;;;2.60;1.25;;;;;;;16.54;37.79;151440.13;5067662;28;20154;-69
2023/06/12 06:13:51;;;;;;;3.97;1.40;;;;;;;16.62;39.08;151460.75;5063625;28;20376;-70
2023/06/12 06:16:17;;;;;;;5.47;1.52;;;;;;;16.50;37.45;151431.16;5063286;28;20313;-69
2023/06/12 06:18:42;;;;;;;5.30;1.52;;;;;;;16.42;36.04;151409.22;5063628;28;20031;-69
2023/06/12 06:21:08;;;;;;;3.60;1.30;;;;;;;16.81;36.43;151507.13;5063053;28;20025;-70
2023/06/12 06:23:34;;;;;;;2.65;1.30;;;;;;;16.73;36.05;151489.09;5059750;28;20024;-69
2023/06/12 06:26:00;;;;;;;3.13;1.30;;;;;;;16.81;35.70;151507.13;5050461;28;20123;-69
2023/06/12 06:28:25;;;;;;;3.85;1.52;;;;;;;16.56;35.88;151445.31;5063384;28;20047;-70
2023/06/12 06:30:51;;;;;;;4.82;1.35;;;;;;;16.55;35.93;151444.00;5062962;28;20035;-69
2023/06/12 06:33:16;;;;;;;3.45;1.23;;;;;;;16.28;36.73;151375.75;5063140;28;20043;-70
2023/06/12 06:35:43;;;;;;;2.05;1.50;;;;;;;16.47;36.81;151422.09;5065212;28;20083;-70
2023/06/12 06:38:09;;;;;;;3.88;1.40;;;;;;;16.77;36.47;151496.81;5063300;28;20028;-69
2023/06/12 06:40:34;;;;;;;2.38;1.60;;;;;;;16.72;36.29;151486.50;5063012;28;20332;-72
2023/06/12 06:43:00;;;;;;;1.60;1.20;;;;;;;16.62;36.22;151460.75;5063037;28;20049;-71
2023/06/12 06:45:25;;;;;;;3.63;1.30;;;;;;;16.61;36.29;151458.16;5062588;28;20029;-72
2023/06/12 06:47:51;;;;;;;6.28;1.70;;;;;;;16.86;36.61;151521.31;5062771;28;20281;-72
2023/06/12 06:50:16;;;;;;;5.45;1.70;;;;;;;16.99;36.60;151552.28;5063246;28;20067;-71
2023/06/12 06:52:42;;;;;;;3.80;1.35;;;;;;;16.98;36.40;151550.97;5062778;28;20040;-72
2023/06/12 06:55:08;;;;;;;2.28;1.70;;;;;;;17.01;36.44;151558.69;5063009;28;20036;-70
2023/06/12 06:57:33;;;;;;;3.85;1.65;;;;;;;17.29;36.08;151627.00;5062484;28;20041;-70
2023/06/12 07:00:03;;;;;;;1.77;1.58;;;;;;;17.16;34.97;151596.09;5062697;28;20111;-69
2023/06/12 07:02:29;;;;;;;1.90;1.67;;;;;;;17.35;36.23;151643.75;5055949;28;20025;-70
2023/06/12 07:04:55;;;;;;;3.28;1.50;;;;;;;17.20;35.27;151605.09;5062890;28;20048;-71
2023/06/12 07:07:20;;;;;;;2.28;1.10;;;;;;;17.01;35.53;151557.44;5062479;28;20310;-70
2023/06/12 07:09:46;;;;;;;3.08;1.40;;;;;;;17.15;34.34;151592.22;5062863;28;20025;-70
2023/06/12 07:12:12;;;;;;;4.13;1.38;;;;;;;17.30;34.75;151629.59;5062271;28;20039;-70
2023/06/12 07:14:38;;;;;;;1.52;1.40;;;;;;;17.40;33.81;151656.69;5062878;28;20056;-70
2023/06/12 07:17:03;;;;;;;2.45;1.60;;;;;;;17.46;34.15;151669.53;5062142;28;20313;-71
2023/06/12 07:19:30;;;;;;;1.70;1.58;;;;;;;16.97;32.86;151547.13;5063271;28;20025;-70
2023/06/12 07:21:56;;;;;;;1.90;1.48;;;;;;;17.23;33.95;151614.13;5066556;28;20029;-68
2023/06/12 07:24:21;;;;;;;2.28;1.60;;;;;;;17.49;33.67;151677.31;5066741;28;20032;-70
2023/06/12 07:26:47;;;;;;;3.05;1.60;;;;;;;17.25;34.91;151619.28;5066468;28;20025;-70
2023/06/12 07:29:13;;;;;;;3.15;1.38;;;;;;;17.39;34.80;151652.81;5066733;28;20036;-69
2023/06/12 07:31:38;;;;;;;3.55;1.33;;;;;;;17.41;34.33;151659.25;5066338;28;20045;-71
2023/06/12 07:34:04;;;;;;;3.90;1.70;;;;;;;17.73;34.55;151739.16;5066672;28;20094;-71
2023/06/12 07:36:35;;;;;;;11.27;5.15;;;;;;;17.70;34.25;151731.44;5055609;28;20025;-71
2023/06/12 07:39:02;;;;;;;15.07;10.05;;;;;;;17.34;34.11;151641.19;5061902;28;20021;-69
2023/06/12 07:41:28;;;;;;;2.28;1.40;;;;;;;17.45;34.62;151668.25;5065870;28;20055;-71
2023/06/12 07:43:53;;;;;;;4.07;1.70;;;;;;;17.54;34.70;151691.47;5066354;28;20032;-70
2023/06/12 07:46:19;;;;;;;4.05;1.60;;;;;;;17.92;34.70;151785.63;5064791;28;20241;-70
2023/06/12 07:48:44;;;;;;;2.60;1.40;;;;;;;17.88;34.01;151775.25;5066358;28;20269;-70
2023/06/12 07:51:10;;;;;;;3.35;1.48;;;;;;;17.86;34.02;151770.13;5065791;28;20194;-71
2023/06/12 07:53:35;;;;;;;4.82;1.70;;;;;;;17.63;33.58;151713.38;5065987;28;20025;-70
2023/06/12 07:56:01;;;;;;;1.95;1.60;;;;;;;17.66;34.08;151721.13;5065382;28;20095;-70
2023/06/12 07:58:27;;;;;;;5.18;1.60;;;;;;;17.69;33.69;151728.84;5065820;28;20130;-70
2023/06/12 08:00:55;;;;;;;3.33;1.60;;;;;;;17.54;33.53;151690.16;5061808;28;20041;-71
2023/06/12 08:03:25;;;;;;;1.50;1.40;;;;;;;17.65;34.57;151717.25;5063214;28;20041;-70
2023/06/12 08:05:53;;;;;;;3.70;1.60;;;;;;;17.58;33.35;151701.75;5065235;28;20048;-69
2023/06/12 08:08:20;;;;;;;3.00;1.70;;;;;;;17.90;34.14;151781.75;5065625;28;20036;-68
2023/06/12 08:10:46;;;;;;;2.42;1.70;;;;;;;17.98;33.72;151799.81;5061915;28;20037;-70
2023/06/12 08:13:11;;;;;;;4.80;1.52;;;;;;;18.38;34.53;151900.38;5045682;28;20085;-71
2023/06/12 08:15:37;;;;;;;2.40;1.75;;;;;;;18.25;34.64;151868.16;5063399;28;20028;-70
2023/06/12 08:18:02;;;;;;;4.63;1.60;;;;;;;18.24;34.15;151866.88;5061006;28;20029;-70
2023/06/12 08:20:30;;;;;;;2.17;1.50;;;;;;;17.96;34.32;151795.94;5054811;28;20028;-71
2023/06/12 08:22:59;;;;;;;2.67;1.70;;;;;;;17.86;34.68;151770.13;5065340;28;20033;-69
2023/06/12 08:25:25;;;;;;;5.00;1.80;;;;;;;17.93;34.42;151789.50;5064910;28;20029;-69
2023/06/12 08:27:51;;;;;;;3.35;1.65;;;;;;;18.02;34.43;151811.41;5065402;28;20025;-69
2023/06/12 08:30:16;;;;;;;2.40;1.52;;;;;;;18.07;33.31;151824.31;5065412;28;20044;-69
2023/06/12 08:32:42;;;;;;;2.80;1.88;;;;;;;18.50;34.34;151930.03;5056524;28;20024;-71
2023/06/12 08:35:08;;;;;;;2.95;1.40;;;;;;;18.51;32.69;151933.91;5065188;28;20040;-71
2023/06/12 08:37:33;;;;;;;6.55;1.40;;;;;;;18.52;33.12;151936.50;5061304;28;20040;-70
2023/06/12 08:40:00;;;;;;;3.38;1.70;;;;;;;17.96;33.25;151794.63;5049912;28;20017;-71
2023/06/12 08:42:26;;;;;;;7.18;2.00;;;;;;;17.91;33.51;151784.34;5064924;28;20032;-70
2023/06/12 08:44:57;;;;;;;5.68;1.70;;;;;;;18.21;33.74;151857.81;5064866;28;20048;-69
2023/06/12 08:47:23;;;;;;;12.35;11.18;;;;;;;18.56;33.07;151946.81;5057112;28;20028;-70
2023/06/12 08:49:48;;;;;;;2.10;1.60;;;;;;;18.07;32.60;151823.00;5064883;28;20040;-70
2023/06/12 08:52:14;;;;;;;4.68;1.70;;;;;;;17.71;33.01;151733.97;5064788;28;20044;-70
2023/06/12 08:54:41;;;;;;;2.72;1.83;;;;;;;17.94;33.72;151792.09;5064793;28;20064;-69
2023/06/12 08:57:10;;;;;;;3.25;1.70;;;;;;;17.79;33.56;151752.06;5055490;28;20020;-70
2023/06/12 08:59:36;;;;;;;3.78;1.75;;;;;;;18.43;34.07;151914.59;5064408;28;20021;-69
2023/06/12 09:02:03;;;;;;;5.13;3.33;;;;;;;18.45;32.97;151919.78;5063861;28;20021;-70
2023/06/12 09:04:54;;;;;;;1.70;1.60;;;;;;;18.58;33.03;151952.00;5064617;28;20364;-70
2023/06/12 09:07:21;;;;;;;2.50;1.80;;;;;;;18.45;33.05;151918.44;5047793;28;20041;-68
2023/06/12 09:09:47;;;;;;;3.92;1.80;;;;;;;18.65;32.33;151968.75;5064847;28;20060;-68
2023/06/12 09:12:15;;;;;;;5.57;2.20;;;;;;;18.56;32.48;151945.56;5063930;28;20043;-71
2023/06/12 09:14:41;;;;;;;4.47;2.08;;;;;;;18.49;33.28;151928.78;5063906;28;20366;-69
2023/06/12 09:17:08;;;;;;;2.70;1.90;;;;;;;18.41;32.50;151909.44;5053684;28;20037;-70
2023/06/12 09:19:44;;;;;;;3.33;1.73;;;;;;;18.42;33.35;151912.00;5064243;28;20029;-68
2023/06/12 09:22:11;;;;;;;2.63;1.75;;;;;;;18.57;33.42;151949.41;5064090;28;20035;-70
2023/06/12 09:24:37;;;;;;;3.20;1.73;;;;;;;18.51;33.25;151932.63;5064272;28;20033;-70
2023/06/12 09:27:03;;;;;;;3.22;1.90;;;;;;;18.77;33.89;151999.72;5064290;28;20044;-70
2023/06/12 09:29:42;;;;;;;5.68;2.05;;;;;;;18.84;32.91;152015.19;5064490;28;20025;-71
2023/06/12 09:32:16;;;;;;;2.97;1.65;;;;;;;18.85;33.20;152019.06;5063837;28;20067;-71
2023/06/12 09:34:50;;;;;;;5.15;1.77;;;;;;;18.52;32.30;151935.22;5064158;28;20033;-69
2023/06/12 09:37:16;;;;;;;4.32;1.70;;;;;;;18.63;32.29;151963.59;5062684;28;20033;-71
2023/06/12 09:39:42;;;;;;;4.03;1.55;;;;;;;18.89;33.32;152028.16;5046476;28;20025;-69
2023/06/12 09:42:10;;;;;;;4.55;1.80;;;;;;;18.93;32.24;152038.50;5062420;28;20051;-71
2023/06/12 09:44:38;;;;;;;6.50;2.00;;;;;;;18.84;32.08;152016.50;5062955;28;20051;-71
2023/06/12 09:47:05;;;;;;;3.83;2.15;;;;;;;18.83;31.75;152012.66;5063379;28;20028;-70
2023/06/12 09:49:32;;;;;;;4.57;1.85;;;;;;;19.09;32.80;152079.75;5063748;28;20091;-70
2023/06/12 09:52:05;;;;;;;4.55;1.90;;;;;;;19.10;33.71;152082.34;5049362;28;20075;-70
2023/06/12 09:54:32;;;;;;;2.53;2.33;;;;;;;19.19;32.63;152103.00;5061788;28;20377;-70
2023/06/12 09:57:00;;;;;;;5.10;1.83;;;;;;;18.97;32.25;152050.09;5063428;28;20055;-72
2023/06/12 09:59:32;;;;;;;1.95;1.73;;;;;;;19.01;32.57;152057.81;5063586;28;20025;-72
2023/06/12 10:02:24;;;;;;;3.22;1.50;;;;;;;18.86;31.64;152020.38;5063117;28;20126;-70
2023/06/12 10:05:01;;;;;;;2.92;1.98;;;;;;;19.09;31.98;152079.75;5062280;28;20060;-71
2023/06/12 10:07:37;;;;;;;5.80;2.20;;;;;;;18.97;31.83;152048.81;5063376;28;20344;-70
2023/06/12 10:10:07;;;;;;;4.97;2.15;;;;;;;19.02;32.47;152061.69;5063703;28;20037;-70
2023/06/12 10:12:33;;;;;;;4.70;2.08;;;;;;;18.72;32.23;151986.81;5063203;28;20032;-71
2023/06/12 10:15:00;;;;;;;4.20;1.70;;;;;;;18.92;32.76;152035.91;5063136;28;20088;-71
2023/06/12 10:17:27;;;;;;;3.08;1.95;;;;;;;19.19;32.85;152103.00;5054690;28;20108;-70
2023/06/12 10:19:54;;;;;;;3.55;1.95;;;;;;;18.66;33.30;151970.06;5063222;28;20017;-72
2023/06/12 10:22:20;;;;;;;3.55;2.00;;;;;;;18.84;32.97;152016.50;5047377;28;20108;-70
2023/06/12 10:24:46;;;;;;;3.35;1.75;;;;;;;18.95;32.96;152043.63;5061723;28;20025;-71
2023/06/12 10:27:12;;;;;;;2.22;1.83;;;;;;;18.69;32.82;151977.81;5063253;28;20052;-71
2023/06/12 10:29:39;;;;;;;2.58;1.65;;;;;;;18.81;32.54;152008.72;5063075;28;20033;-72
2023/06/12 10:32:14;;;;;;;2.67;1.80;;;;;;;18.79;33.27;152004.88;5054130;28;20379;-70
2023/06/12 10:34:45;;;;;;;5.00;1.67;;;;;;;18.82;33.13;152010.06;5063234;28;20417;-70
2023/06/12 10:37:39;;;;;;;1.98;1.75;;;;;;;18.95;33.34;152043.63;5062587;28;20078;-73
2023/06/12 10:40:15;;;;;;;4.25;2.22;;;;;;;19.11;32.58;152084.94;5062942;28;20036;-69
2023/06/12 10:43:02;;;;;;;5.85;2.25;;;;;;;19.10;32.66;152082.34;5062202;28;20390;-70
2023/06/12 10:45:30;;;;;;;4.82;2.00;;;;;;;18.72;32.64;151986.81;5062612;28;20052;-70
2023/06/12 10:50:31;;;;;;;2.10;1.90;;;;;;;18.64;32.66;151966.19;5062275;28;20052;-70
2023/06/12 10:53:00;;;;;;;4.35;1.92;;;;;;;18.69;33.42;151979.06;5062894;28;20067;-69
2023/06/12 10:55:29;;;;;;;4.03;2.20;;;;;;;18.59;33.23;151953.28;5061502;28;20029;-69
2023/06/12 10:57:57;;;;;;;3.88;1.90;;;;;;;18.88;32.99;152025.56;5042668;28;20037;-69
2023/06/12 11:00:28;;;;;;;6.13;2.30;;;;;;;18.90;32.72;152032.03;5057713;28;20112;-69
2023/06/12 11:03:13;;;;;;;3.43;1.83;;;;;;;18.91;31.98;152033.31;5062839;28;20045;-68
2023/06/12 11:05:46;;;;;;;3.30;2.10;;;;;;;19.05;31.83;152068.16;5062276;28;20473;-69
2023/06/12 11:08:12;;;;;;;4.45;2.00;;;;;;;18.92;32.38;152035.91;5062966;28;20029;-71
2023/06/12 11:10:38;;;;;;;5.75;1.83;;;;;;;19.08;32.70;152077.22;5062184;28;20040;-71
2023/06/12 11:13:04;;;;;;;4.75;1.80;;;;;;;19.09;32.22;152078.47;5062689;28;20248;-70
2023/06/12 11:15:46;;;;;;;2.15;1.83;;;;;;;19.16;32.08;152095.28;5062197;28;20282;-70
2023/06/12 11:18:12;;;;;;;;;;;;;;;19.18;31.68;152101.69;5063324;28;20028;-70
2023/06/12 11:20:39;;;;;;;14.43;2.40;;;;;;;19.34;32.30;152140.41;5062123;28;19916;-70
2023/06/12 11:23:05;;;;;;;5.53;1.98;;;;;;;19.47;33.13;152175.28;5062581;28;20029;-69
2023/06/12 11:25:45;;;;;;;2.88;1.80;;;;;;;19.53;32.34;152188.19;5061809;28;20025;-70
2023/06/12 11:28:12;;;;;;;3.72;1.77;;;;;;;19.62;31.85;152211.41;5062676;28;20370;-70